createdAt,value
2019-01-17T00:03:04.623Z,78.70
2019-01-17T00:06:05.770Z,81.40
2019-01-17T00:12:29.051Z,82.00
2019-01-17T00:18:47.113Z,86.50
2019-01-17T00:25:07.632Z,88.10
2019-01-17T00:27:55.975Z,88.90
2019-01-17T00:30:41.769Z,88.50
2019-01-17T00:33:33.281Z,88.50
2019-01-17T00:36:23.771Z,89.00
2019-01-17T00:39:21.770Z,88.90
2019-01-17T00:42:13.267Z,88.60
2019-01-17T00:45:04.274Z,88.10
2019-01-17T00:48:02.782Z,87.70
2019-01-17T00:50:54.689Z,87.50
2019-01-17T00:53:48.793Z,84.60
2019-01-17T00:56:54.725Z,82.90
2019-01-17T01:03:26.777Z,82.30
2019-01-17T01:10:16.108Z,82.90
2019-01-17T01:13:14.284Z,84.40
2019-01-17T01:16:16.790Z,84.60
2019-01-17T01:19:08.178Z,84.80
2019-01-17T01:21:58.981Z,84.00
2019-01-17T01:24:55.108Z,83.70
2019-01-17T01:28:03.779Z,82.10
2019-01-17T01:30:59.652Z,81.60
2019-01-17T01:37:30.004Z,82.20
2019-01-17T01:43:48.784Z,82.10
2019-01-17T01:46:40.093Z,82.30
2019-01-17T01:49:31.101Z,82.40
2019-01-17T01:52:16.990Z,82.50
2019-01-17T01:54:51.203Z,82.60
2019-01-17T01:57:27.057Z,82.80
2019-01-17T02:00:02.786Z,83.10
2019-01-17T02:02:37.124Z,82.90
2019-01-17T02:05:11.788Z,83.20
2019-01-17T02:07:46.781Z,83.90
2019-01-17T02:10:20.994Z,84.00
2019-01-17T02:12:55.007Z,84.80
2019-01-17T02:15:29.015Z,85.80
2019-01-17T02:18:04.260Z,86.60
2019-01-17T02:20:38.673Z,87.70
2019-01-17T02:23:13.295Z,88.70
2019-01-17T02:25:47.789Z,89.50
2019-01-17T02:28:22.786Z,89.60
2019-01-17T02:30:56.787Z,89.90
2019-01-17T02:33:30.798Z,90.20
2019-01-17T02:36:06.004Z,90.20
2019-01-17T02:38:42.789Z,90.40
2019-01-17T02:41:17.790Z,90.50
2019-01-17T02:43:52.337Z,90.30
2019-01-17T02:46:28.198Z,90.00
2019-01-17T02:49:04.794Z,90.60
2019-01-17T02:51:39.073Z,91.60
2019-01-17T02:54:15.131Z,91.60
2019-01-17T02:56:52.229Z,91.60
2019-01-17T02:59:26.234Z,91.30
2019-01-17T03:02:01.803Z,91.30
2019-01-17T03:04:36.084Z,91.00
2019-01-17T03:07:11.118Z,90.60
2019-01-17T03:09:46.795Z,91.00
2019-01-17T03:12:20.806Z,91.70
2019-01-17T03:14:56.217Z,92.10
2019-01-17T03:17:30.023Z,92.10
2019-01-17T03:20:06.318Z,91.90
2019-01-17T03:22:42.342Z,91.90
2019-01-17T03:25:16.793Z,91.70
2019-01-17T03:27:52.000Z,91.20
2019-01-17T03:30:28.058Z,90.90
2019-01-17T03:33:02.797Z,90.70
2019-01-17T03:35:38.125Z,90.20
2019-01-17T03:38:13.839Z,90.20
2019-01-17T03:40:49.011Z,89.50
2019-01-17T03:43:25.275Z,89.40
2019-01-17T03:46:01.127Z,89.00
2019-01-17T03:48:36.365Z,89.10
2019-01-17T03:51:12.012Z,88.90
2019-01-17T03:53:46.021Z,88.90
2019-01-17T03:56:21.895Z,89.20
2019-01-17T03:58:57.114Z,89.40
2019-01-17T04:01:32.795Z,89.40
2019-01-17T04:04:06.802Z,89.00
2019-01-17T04:06:40.810Z,88.80
2019-01-17T04:09:16.016Z,88.90
2019-01-17T04:11:50.025Z,89.70
2019-01-17T04:14:25.060Z,89.70
2019-01-17T04:17:00.307Z,90.00
2019-01-17T04:19:34.803Z,91.00
2019-01-17T04:22:08.801Z,91.10
2019-01-17T04:28:13.805Z,92.00
2019-01-17T04:34:29.078Z,91.80
2019-01-17T04:37:04.813Z,91.70
2019-01-17T04:39:39.147Z,92.00
2019-01-17T04:42:13.809Z,92.20
2019-01-17T04:44:47.818Z,92.30
2019-01-17T04:47:21.818Z,92.50
2019-01-17T04:49:57.649Z,92.30
2019-01-17T04:52:32.809Z,92.70
2019-01-17T04:55:08.323Z,92.90
2019-01-17T04:57:42.837Z,92.90
2019-01-17T05:00:23.304Z,92.80
2019-01-17T05:02:58.134Z,92.80
2019-01-17T05:05:34.191Z,93.40
2019-01-17T05:08:10.338Z,92.80
2019-01-17T05:10:45.814Z,92.40
2019-01-17T05:13:20.726Z,92.00
2019-01-17T05:15:59.051Z,89.70
2019-01-17T05:18:35.299Z,88.70
2019-01-17T05:21:10.817Z,87.80
2019-01-17T05:23:45.364Z,85.40
2019-01-17T05:26:19.827Z,84.50
2019-01-17T05:28:53.822Z,83.10
2019-01-17T05:31:27.829Z,82.30
2019-01-17T05:34:03.040Z,82.20
2019-01-17T05:36:39.302Z,81.90
2019-01-17T05:39:13.816Z,81.90
2019-01-17T05:41:49.166Z,81.90
2019-01-17T05:44:26.089Z,81.70
2019-01-17T05:47:03.532Z,81.70
2019-01-17T05:49:42.357Z,81.30
2019-01-17T05:52:17.285Z,80.60
2019-01-17T05:58:20.838Z,79.70
2019-01-17T06:04:43.170Z,79.80
2019-01-17T06:10:59.179Z,83.30
2019-01-17T06:13:36.055Z,82.20
2019-01-17T06:16:16.864Z,82.60
2019-01-17T06:18:55.338Z,84.50
2019-01-17T06:21:30.836Z,85.00
2019-01-17T06:27:33.833Z,81.50
2019-01-17T06:33:39.055Z,80.10
2019-01-17T06:39:18.845Z,78.00
2019-01-17T06:41:54.259Z,77.50
2019-01-17T06:44:33.194Z,77.40
2019-01-17T06:47:09.444Z,77.00
2019-01-17T06:49:45.233Z,76.40
2019-01-17T06:52:21.356Z,77.30
2019-01-17T06:54:56.183Z,77.60
2019-01-17T07:04:04.228Z,76.20
2019-01-17T07:06:39.900Z,75.80
2019-01-17T07:12:55.274Z,75.20
2019-01-17T07:15:33.388Z,74.60
2019-01-17T07:18:08.902Z,74.50
2019-01-17T07:20:42.903Z,74.40
2019-01-17T07:23:20.119Z,74.40
2019-01-17T07:25:54.334Z,74.20
2019-01-17T07:28:30.390Z,74.70
2019-01-17T07:31:05.913Z,74.60
2019-01-17T07:33:40.251Z,74.40
2019-01-17T07:36:14.679Z,74.70
2019-01-17T07:42:19.912Z,74.90
2019-01-17T07:44:54.911Z,75.90
2019-01-17T07:47:52.898Z,75.70
2019-01-17T07:50:27.912Z,76.00
2019-01-17T07:53:04.131Z,76.40
2019-01-17T07:55:38.141Z,76.50
2019-01-17T07:58:14.813Z,76.90
2019-01-17T08:00:49.436Z,76.70
2019-01-17T08:03:23.923Z,76.40
2019-01-17T08:06:01.146Z,76.80
2019-01-17T08:08:37.915Z,77.20
2019-01-17T08:11:13.259Z,77.40
2019-01-17T08:13:48.933Z,77.40
2019-01-17T08:16:23.322Z,78.40
2019-01-17T08:18:59.917Z,78.20
2019-01-17T08:21:36.482Z,78.40
2019-01-17T08:24:11.495Z,78.10
2019-01-17T08:26:46.121Z,78.30
2019-01-17T08:29:22.792Z,78.70
2019-01-17T08:31:58.235Z,78.30
2019-01-17T08:34:34.704Z,78.50
2019-01-17T08:37:10.145Z,78.40
2019-01-17T08:39:46.406Z,78.70
2019-01-17T08:42:21.924Z,78.40
2019-01-17T08:44:56.922Z,78.10
2019-01-17T08:47:32.327Z,78.50
2019-01-17T08:50:08.384Z,78.40
2019-01-17T08:52:43.214Z,79.00
2019-01-17T08:55:18.918Z,79.00
2019-01-17T09:01:34.465Z,79.10
2019-01-17T09:04:09.123Z,78.50
2019-01-17T09:06:45.554Z,78.70
2019-01-17T09:09:21.129Z,78.90
2019-01-17T09:11:57.110Z,78.40
2019-01-17T09:14:33.940Z,78.30
2019-01-17T09:17:10.118Z,78.60
2019-01-17T09:23:38.120Z,77.90
2019-01-17T09:29:55.331Z,78.40
2019-01-17T09:36:10.318Z,78.40
2019-01-17T09:38:46.579Z,78.20
2019-01-17T09:41:22.117Z,78.50
2019-01-17T09:43:56.122Z,78.60
2019-01-17T09:46:31.118Z,78.60
2019-01-17T09:52:47.682Z,78.50
2019-01-17T09:55:23.339Z,78.60
2019-01-17T09:58:02.120Z,78.70
2019-01-17T10:04:16.641Z,78.90
2019-01-17T10:06:51.671Z,79.50
2019-01-17T10:09:26.125Z,79.70
2019-01-17T10:15:57.993Z,79.60
2019-01-17T10:19:06.698Z,79.50
2019-01-17T10:22:43.994Z,79.50
2019-01-17T10:25:49.337Z,79.30
2019-01-17T10:28:57.341Z,79.50
2019-01-17T10:32:00.639Z,80.10
2019-01-17T10:38:42.997Z,81.00
2019-01-17T10:41:50.674Z,80.80
2019-01-17T10:48:29.415Z,80.90
2019-01-17T10:55:00.580Z,81.80
2019-01-17T10:58:04.128Z,82.00
2019-01-17T11:01:11.474Z,82.00
2019-01-17T11:04:18.128Z,82.60
2019-01-17T11:07:15.814Z,83.10
2019-01-17T11:11:05.801Z,83.90
2019-01-17T11:14:09.127Z,84.50
2019-01-17T11:17:04.614Z,84.90
2019-01-17T11:20:14.051Z,84.50
2019-01-17T11:23:18.576Z,84.50
2019-01-17T11:26:25.353Z,85.20
2019-01-17T11:29:38.889Z,85.40
2019-01-17T11:32:47.714Z,85.70
2019-01-17T11:35:38.931Z,85.50
2019-01-17T11:38:52.505Z,85.80
2019-01-17T11:42:08.512Z,86.10
2019-01-17T11:45:14.008Z,85.90
2019-01-17T11:48:16.537Z,86.00
2019-01-17T11:51:28.790Z,86.30
2019-01-17T11:54:35.977Z,86.90
2019-01-17T11:57:52.789Z,86.80
2019-01-17T12:01:00.514Z,87.50
2019-01-17T12:03:58.971Z,87.70
2019-01-17T12:06:34.209Z,87.90
2019-01-17T12:09:10.509Z,88.10
2019-01-17T12:11:44.512Z,88.20
2019-01-17T12:14:21.976Z,88.60
2019-01-17T12:17:06.224Z,89.10
2019-01-17T12:19:42.904Z,89.70
2019-01-17T12:25:46.828Z,89.30
2019-01-17T12:28:29.819Z,89.60
2019-01-17T12:31:05.692Z,89.50
2019-01-17T12:33:42.788Z,89.40
2019-01-17T12:36:19.042Z,89.00
2019-01-17T12:38:53.871Z,89.20
2019-01-17T12:41:32.181Z,88.80
2019-01-17T12:47:42.054Z,88.70
2019-01-17T12:50:21.999Z,88.70
2019-01-17T12:52:57.440Z,88.30
2019-01-17T12:55:32.510Z,88.70
2019-01-17T12:58:07.712Z,88.70
2019-01-17T13:00:43.770Z,88.50
2019-01-17T13:03:19.419Z,88.60
2019-01-17T13:05:53.509Z,88.80
2019-01-17T13:08:36.036Z,88.80
2019-01-17T13:11:10.511Z,88.70
2019-01-17T13:13:44.880Z,89.50
2019-01-17T13:16:25.853Z,89.90
2019-01-17T13:19:00.510Z,90.30
2019-01-17T13:21:34.907Z,90.40
2019-01-17T13:24:09.722Z,90.60
2019-01-17T13:26:45.983Z,90.40
2019-01-17T13:29:23.475Z,90.50
2019-01-17T13:31:58.713Z,90.80
2019-01-17T13:34:35.181Z,89.80
2019-01-17T13:37:11.854Z,88.10
2019-01-17T13:39:46.512Z,88.50
2019-01-17T13:42:20.932Z,86.90
2019-01-17T13:44:55.723Z,86.90
2019-01-17T13:51:11.737Z,86.20
2019-01-17T13:53:47.793Z,86.20
2019-01-17T13:56:28.976Z,86.40
2019-01-17T13:59:03.393Z,86.80
2019-01-17T14:01:37.809Z,85.80
2019-01-17T14:04:20.562Z,86.50
2019-01-17T14:06:55.517Z,86.50
2019-01-17T14:09:30.897Z,85.40
2019-01-17T14:12:06.996Z,84.00
2019-01-17T14:14:43.516Z,83.80
2019-01-17T14:17:18.526Z,83.90
2019-01-17T14:19:54.104Z,84.20
2019-01-17T14:22:28.727Z,84.00
2019-01-17T14:25:02.940Z,84.70
2019-01-17T14:31:06.519Z,84.30
2019-01-17T14:33:42.929Z,84.70
2019-01-17T14:36:18.987Z,84.50
2019-01-17T14:39:30.309Z,84.80
2019-01-17T14:42:12.575Z,85.50
2019-01-17T14:44:50.171Z,85.40
2019-01-17T14:47:32.574Z,85.40
2019-01-17T14:50:08.483Z,84.90
2019-01-17T14:52:44.963Z,85.00
2019-01-17T14:55:24.859Z,85.60
2019-01-17T14:58:01.411Z,85.50
2019-01-17T15:00:38.341Z,84.80
2019-01-17T15:03:14.465Z,85.40
2019-01-17T15:05:49.995Z,85.30
2019-01-17T15:08:24.824Z,85.80
2019-01-17T15:11:00.266Z,86.10
2019-01-17T15:13:34.403Z,85.80
2019-01-17T15:16:12.586Z,85.40
2019-01-17T15:18:48.644Z,85.20
2019-01-17T15:21:25.140Z,85.60
2019-01-17T15:23:59.324Z,84.80
2019-01-17T15:26:35.015Z,85.50
2019-01-17T15:32:39.723Z,85.40
2019-01-17T15:35:20.902Z,85.40
2019-01-17T15:37:56.962Z,85.80
2019-01-17T15:44:18.099Z,86.00
2019-01-17T15:46:59.895Z,86.00
2019-01-17T15:49:36.147Z,85.80
2019-01-17T15:55:19.593Z,86.10
2019-01-17T15:57:59.335Z,86.10
2019-01-17T16:00:37.648Z,86.00
2019-01-17T16:03:14.137Z,85.70
2019-01-17T16:05:52.651Z,85.60
2019-01-17T16:11:32.394Z,85.40
2019-01-17T16:17:37.958Z,85.70
2019-01-17T16:20:16.065Z,86.00
2019-01-17T16:22:52.941Z,86.20
2019-01-17T16:28:55.848Z,85.40
2019-01-17T16:35:03.262Z,85.00
2019-01-17T16:37:38.705Z,84.70
2019-01-17T16:40:19.674Z,84.10
2019-01-17T16:42:54.711Z,84.70
2019-01-17T16:45:35.472Z,84.40
2019-01-17T16:48:08.360Z,84.70
2019-01-17T16:54:11.061Z,83.70
2019-01-17T16:56:50.398Z,84.00
2019-01-17T17:02:54.387Z,84.80
2019-01-17T17:08:58.970Z,84.60
2019-01-17T17:14:37.299Z,84.50
2019-01-17T17:20:42.767Z,84.60
2019-01-17T17:26:48.025Z,85.00
2019-01-17T17:29:25.661Z,85.00
2019-01-17T17:31:59.512Z,84.20
2019-01-17T17:38:02.738Z,84.60
2019-01-17T17:40:37.772Z,84.60
2019-01-17T17:43:15.574Z,84.50
2019-01-17T17:49:18.244Z,83.80
2019-01-17T17:51:53.463Z,83.90
2019-01-17T17:54:28.646Z,83.90
2019-01-17T17:57:04.778Z,84.40
2019-01-17T17:59:43.076Z,83.00
2019-01-17T18:02:29.414Z,84.00
2019-01-17T18:05:06.309Z,84.00
2019-01-17T18:07:40.608Z,84.80
2019-01-17T18:10:19.672Z,85.30
2019-01-17T18:12:55.798Z,85.20
2019-01-17T18:15:42.701Z,85.40
2019-01-17T18:18:18.697Z,85.60
2019-01-17T18:20:52.977Z,85.70
2019-01-17T18:26:45.233Z,85.70
2019-01-17T18:33:01.041Z,86.10
2019-01-17T18:39:18.078Z,86.40
2019-01-17T18:45:33.679Z,86.60
2019-01-17T18:48:11.376Z,87.10
2019-01-17T18:50:47.032Z,86.80
2019-01-17T18:53:23.902Z,86.90
2019-01-17T18:59:29.061Z,87.10
2019-01-17T19:02:07.697Z,87.00
2019-01-17T19:04:49.377Z,86.90
2019-01-17T19:07:26.244Z,87.00
2019-01-17T19:10:08.240Z,87.30
2019-01-17T19:12:45.164Z,86.80
2019-01-17T19:15:22.199Z,86.50
2019-01-17T19:17:57.233Z,86.60
2019-01-17T19:20:31.694Z,86.50
2019-01-17T19:23:07.100Z,86.20
2019-01-17T19:25:44.999Z,86.40
2019-01-17T19:38:29.922Z,84.90
2019-01-17T19:41:04.956Z,84.80
2019-01-17T19:47:19.126Z,84.90
2019-01-17T19:49:54.772Z,85.30
2019-01-17T19:52:29.193Z,84.90
2019-01-17T19:55:11.801Z,84.80
2019-01-17T19:57:46.017Z,84.70
2019-01-17T20:00:22.280Z,83.90
2019-01-17T20:03:05.643Z,84.10
2019-01-17T20:05:40.128Z,83.50
2019-01-17T20:08:16.188Z,83.60
2019-01-17T20:10:52.041Z,83.80
2019-01-17T20:13:24.213Z,83.80
2019-01-17T20:15:57.700Z,83.10
2019-01-17T20:22:08.903Z,83.10
2019-01-17T20:28:11.810Z,83.50
2019-01-17T20:30:56.070Z,83.80
2019-01-17T20:33:33.345Z,83.50
2019-01-17T20:36:09.436Z,83.00
2019-01-17T20:38:44.511Z,82.80
2019-01-17T20:44:52.772Z,82.30
2019-01-17T20:51:03.151Z,82.80
2019-01-17T20:53:32.377Z,82.50
2019-01-17T20:56:07.379Z,82.90
2019-01-17T20:58:46.305Z,83.20
2019-01-17T21:01:52.570Z,83.50
2019-01-17T21:10:44.391Z,83.20
2019-01-17T21:13:19.060Z,83.50
2019-01-17T21:19:23.195Z,83.40
2019-01-17T21:21:59.147Z,84.40
2019-01-17T21:24:33.091Z,85.40
2019-01-17T21:27:10.100Z,85.70
2019-01-17T21:29:44.966Z,86.70
2019-01-17T21:35:46.689Z,87.00
2019-01-17T21:41:52.931Z,86.90
2019-01-17T21:44:30.488Z,86.40
2019-01-17T21:47:04.704Z,86.20
2019-01-17T21:53:06.170Z,86.70
2019-01-17T21:59:07.267Z,87.00
2019-01-17T22:01:42.303Z,86.10
2019-01-17T22:04:17.956Z,86.10
2019-01-17T22:10:23.218Z,84.90
2019-01-17T22:12:59.067Z,84.50
2019-01-17T22:15:34.098Z,84.20
2019-01-17T22:18:15.297Z,83.70
2019-01-17T22:20:57.890Z,83.70
2019-01-17T22:23:37.015Z,83.80
2019-01-17T22:26:11.895Z,83.90
2019-01-17T22:28:46.263Z,84.30
2019-01-17T22:31:26.827Z,84.50
2019-01-17T22:34:04.111Z,84.10
2019-01-17T22:36:40.784Z,84.20
2019-01-17T22:42:41.026Z,84.20
2019-01-17T22:48:56.016Z,83.70
2019-01-17T22:54:59.946Z,83.90
2019-01-17T23:01:25.993Z,82.60
2019-01-17T23:04:01.547Z,82.10
2019-01-17T23:06:36.550Z,82.20
2019-01-17T23:09:12.557Z,82.30
2019-01-17T23:11:47.767Z,81.40
2019-01-17T23:14:24.027Z,80.70
2019-01-17T23:16:59.065Z,81.10
2019-01-17T23:19:33.549Z,81.20
2019-01-17T23:22:08.924Z,80.90
2019-01-17T23:24:43.956Z,81.10
2019-01-17T23:27:20.015Z,80.60
2019-01-17T23:29:55.048Z,80.50
2019-01-17T23:32:30.549Z,80.40
2019-01-17T23:35:05.554Z,80.00
2019-01-17T23:37:42.810Z,80.10
2019-01-17T23:40:17.549Z,79.90
2019-01-17T23:46:19.932Z,80.30
2019-01-17T23:48:50.052Z,80.40
2019-01-17T23:51:24.878Z,80.20
2019-01-17T23:57:29.423Z,79.90
